الصفحة الرئيسية
METAR-TAF:

METAR-TAF

مطار :

مطار بغداد الدولي

بغداد, العراق

دائرة عرض: 33-15-45N, خط طول: 44-14-04E, ارتفاع: 35 متر

مراقبة الطقس الحالي

تاريخ ووقت الإصدار 39 دقيقة قبل الساعة 13:00UTC
ريح 12 عقدة من الغرب/الشمال الغربي, الاتجاه يتراوح بين الغرب و الشمال/الشمال الغربي
درجة الحرارة 38°درجة مئوية
الرطوبة 14%
ضغط 1009 hPa
الرؤية 10 كم أو أكثر
غيوم قليلة على ارتفاع 4500 قدم

METAR: ORBI 211300Z 30012KT 270V330 9999 FEW045 38/06 Q1009 NOSIG

زمن: 16:39 (13:39 UTC)

توقعات

تاريخ ووقت الإصدار 3ساعات و 39 دقيقة قبل الساعة 10:00UTC
التوقعات صالحة من21 الساعة 12 UTC إلى 22 الساعة 12 UTC
ريح 10 عقدة من الغرب
الرؤية: 8000 متر

TAF: ORBI 211000Z 2112/2212 28010KT 8000 NSC

أرصاد الطقس والتوقعات من أكثر من 4000 مطار (تقارير الطقس للمطار METAR والتنبؤ بالطقس بالمطارTAF).

المحطات المتاحة هي النقط الصفراء والحمراء على الخريطة.

حرك المؤشر فوق النقطة لمعرفة اسم المحطة.

ثم انقر لمعرفة أرصاد وتوقعات الطقس.

لتغيير الخارطة: اضغط على الأزرار الخضراء مع رمز الصليب الأسود للتكبير. على الزر الأخضر مع شرطة للتصغير، أو على الأسهم الخضراء للخرائط المجاورة.


METAR-TAF: